Time;durP1;ratioP1;P1;durP2;ratioP2;P2;SDS_P1;SDS_P2;PMS_P1;PMS_P2;Temp;Humidity;BMP_temperature;BMP_pressure;BME280_temperature;BME280_humidity;BME280_pressure;Samples;Min_cycle;Max_cycle;Signal;HPM_P1;HPM_P2
2022/10/02 00:01:54;;;;;;;;;5.50;3.75;;;;;17.72;62.81;101510.53;5071391;27;46092;-67
2022/10/02 00:04:37;;;;;;;;;2.50;2.25;;;;;17.78;62.99;101517.47;5065237;28;45608;-67
2022/10/02 00:07:06;;;;;;;;;6.00;4.75;;;;;17.78;62.93;101520.16;5076085;27;45456;-67
2022/10/02 00:09:55;;;;;;;;;3.75;2.75;;;;;17.71;63.32;101503.41;5077441;28;45657;-67
2022/10/02 00:12:25;;;;;;;;;3.00;3.00;;;;;17.79;63.65;101521.88;5077370;28;47401;-67
2022/10/02 00:14:55;;;;;;;;;4.50;4.00;;;;;17.78;63.40;101517.47;5066192;27;45303;-67
2022/10/02 00:17:26;;;;;;;;;3.50;3.50;;;;;17.76;63.46;101519.38;5059058;27;45670;-67
2022/10/02 00:19:53;;;;;;;;;8.00;4.00;;;;;17.71;63.78;101508.78;5062676;27;45327;-67
2022/10/02 00:22:25;;;;;;;;;4.00;4.00;;;;;17.78;64.03;101525.56;5069018;28;45409;-67
2022/10/02 00:25:02;;;;;;;;;4.50;4.50;;;;;17.76;64.27;101520.22;5071025;28;45627;-67
2022/10/02 00:27:42;;;;;;;;;8.00;4.00;;;;;17.78;64.07;101518.31;5069046;28;45312;-67
2022/10/02 00:30:13;;;;;;;;;4.00;4.00;;;;;17.78;64.04;101515.63;5065226;27;45667;-67
2022/10/02 00:33:02;;;;;;;;;4.50;2.75;;;;;17.78;64.64;101514.75;5063575;27;45744;-67
2022/10/02 00:35:39;;;;;;;;;4.50;4.50;;;;;17.81;64.69;101516.41;5062182;27;45507;-67
2022/10/02 00:38:31;;;;;;;;;3.00;3.00;;;;;17.73;64.76;101501.47;5058686;27;45487;-67
2022/10/02 00:41:38;;;;;;;;;6.50;3.75;;;;;17.78;64.51;101518.31;5064126;27;45487;-67
2022/10/02 00:44:16;;;;;;;;;4.25;3.25;;;;;17.80;65.22;101525.47;5058155;28;46064;-67
2022/10/02 00:46:57;;;;;;;;;2.00;1.75;;;;;17.83;64.83;101541.53;5076056;27;45339;-67
2022/10/02 00:50:03;;;;;;;;;4.00;4.00;;;;;17.83;65.11;101533.44;5064478;27;45453;-67
2022/10/02 00:52:40;;;;;;;;;4.00;3.00;;;;;17.83;65.11;101533.44;5041539;28;45667;-67
2022/10/02 00:55:27;;;;;;;;;2.50;2.50;;;;;17.83;65.50;101537.00;5058007;27;45534;-67
2022/10/02 00:58:04;;;;;;;;;4.00;1.00;;;;;17.83;65.57;101544.25;5061871;28;45519;-67
2022/10/02 01:00:30;;;;;;;;;3.00;3.00;;;;;17.78;65.50;101529.13;5060840;27;45328;-67
2022/10/02 01:03:15;;;;;;;;;3.25;3.00;;;;;17.80;65.50;101534.44;5058212;28;45715;-67
2022/10/02 01:05:40;;;;;;;;;4.00;3.00;;;;;17.81;66.18;101535.31;5076093;27;46302;-67
2022/10/02 01:08:07;;;;;;;;;4.50;4.50;;;;;17.84;66.31;101538.75;5062564;28;45352;-67
2022/10/02 01:10:33;;;;;;;;;3.25;2.00;;;;;17.78;66.11;101531.81;5074109;27;45596;-67
2022/10/02 01:12:58;;;;;;;;;3.00;2.00;;;;;17.86;66.92;101535.97;5072343;28;45402;-67
2022/10/02 01:15:32;;;;;;;;;2.25;2.00;;;;;17.76;66.82;101516.66;5071822;27;45365;-67
2022/10/02 01:17:57;;;;;;;;;2.00;2.00;;;;;17.82;67.06;101521.75;5073383;28;45526;-67
2022/10/02 01:20:52;;;;;;;;;3.00;3.00;;;;;17.88;67.15;101532.28;5060567;27;45404;-67
2022/10/02 01:24:16;;;;;;;;;1.50;1.50;;;;;17.84;67.71;101510.84;5061582;28;45768;-67
2022/10/02 01:26:41;;;;;;;;;3.25;2.75;;;;;17.86;68.06;101520.66;5060098;27;45447;-67
2022/10/02 01:29:07;;;;;;;;;3.25;2.50;;;;;17.86;67.57;101525.16;5074247;28;45844;-67
2022/10/02 01:31:34;;;;;;;;;2.50;2.50;;;;;17.86;67.71;101530.56;5073926;27;45813;-67
2022/10/02 01:34:00;;;;;;;;;2.00;2.00;;;;;17.86;68.49;101527.84;5069277;28;45413;-67
2022/10/02 01:36:26;;;;;;;;;3.75;3.00;;;;;17.87;68.57;101526.94;5080768;27;45334;-67
2022/10/02 01:38:52;;;;;;;;;2.00;2.00;;;;;17.87;68.81;101524.25;5074243;28;45532;-67
2022/10/02 01:41:18;;;;;;;;;3.50;2.75;;;;;17.83;68.43;101520.81;5074780;27;45496;-67
2022/10/02 01:43:54;;;;;;;;;2.50;2.50;;;;;17.81;69.15;101517.31;5069866;28;45440;-67
2022/10/02 01:46:19;;;;;;;;;2.25;2.25;;;;;17.85;69.54;101515.31;5068655;27;46613;-67
2022/10/02 01:49:23;;;;;;;;;2.50;2.50;;;;;17.85;69.39;101518.88;5071493;28;45473;-67
2022/10/02 01:52:07;;;;;;;;;3.00;3.00;;;;;17.85;69.86;101526.13;5072021;27;45656;-67
2022/10/02 01:54:42;;;;;;;;;3.25;3.25;;;;;17.85;70.07;101521.59;5067132;28;45315;-67
2022/10/02 01:57:17;;;;;;;;;2.50;2.50;;;;;17.85;69.94;101516.19;5080838;27;45574;-67
2022/10/02 02:00:10;;;;;;;;;1.50;1.50;;;;;17.84;69.87;101517.16;5061697;28;45469;-67
2022/10/02 02:02:56;;;;;;;;;2.25;2.25;;;;;17.83;70.69;101511.84;5073324;27;45405;-67
2022/10/02 02:05:40;;;;;;;;;1.25;1.25;;;;;17.84;70.71;101511.75;5078975;28;45418;-67
2022/10/02 02:08:18;;;;;;;;;0.50;0.50;;;;;17.75;70.65;101494.16;5076956;28;46267;-67
2022/10/02 02:10:54;;;;;;;;;2.00;2.00;;;;;17.83;70.87;101511.84;5061519;27;45538;-67
2022/10/02 02:13:44;;;;;;;;;0.50;0.50;;;;;17.84;70.51;101508.16;5070386;28;45288;-67
2022/10/02 02:16:28;;;;;;;;;2.25;1.50;;;;;17.85;70.92;101504.53;5067748;27;45560;-67
2022/10/02 02:19:21;;;;;;;;;0.50;0.50;;;;;17.86;71.26;101495.44;5069889;28;46354;-67
2022/10/02 02:22:15;;;;;;;;;2.25;0.50;;;;;17.85;70.75;101496.41;5069345;27;45551;-67
2022/10/02 02:24:51;;;;;;;;;1.75;0.75;;;;;17.88;70.75;101494.47;5060505;28;45447;-67
2022/10/02 02:27:21;;;;;;;;;2.00;1.50;;;;;17.90;71.15;101494.38;5073232;27;45493;-67
2022/10/02 02:29:51;;;;;;;;;2.00;2.00;;;;;17.88;71.64;101488.19;5071075;28;46080;-67
2022/10/02 02:32:23;;;;;;;;;0.50;0.00;;;;;17.88;71.96;101489.06;5079996;27;45559;-67
2022/10/02 02:34:56;;;;;;;;;2.25;0.75;;;;;17.89;72.26;101488.13;5073628;28;45347;-67
2022/10/02 02:37:26;;;;;;;;;2.75;1.25;;;;;17.89;71.82;101481.81;5073315;27;45286;-67
2022/10/02 02:39:55;;;;;;;;;0.75;0.50;;;;;17.88;71.72;101478.25;5066234;28;45581;-67
2022/10/02 02:42:24;;;;;;;;;2.25;2.25;;;;;17.89;72.05;101474.63;5080050;27;45452;-67
2022/10/02 02:44:59;;;;;;;;;3.00;2.00;;;;;17.90;72.52;101475.47;5070550;27;45362;-67
2022/10/02 02:47:39;;;;;;;;;2.00;2.00;;;;;17.85;72.65;101462.19;5064458;28;45863;-67
2022/10/02 02:50:21;;;;;;;;;1.50;1.50;;;;;17.89;72.64;101473.72;5070669;27;46540;-67
2022/10/02 02:52:57;;;;;;;;;1.50;1.50;;;;;17.91;72.25;101466.44;5077925;28;45437;-67
2022/10/02 02:55:29;;;;;;;;;1.25;1.25;;;;;17.92;72.49;101471.72;5073529;27;45542;-67
2022/10/02 02:58:17;;;;;;;;;1.75;1.75;;;;;17.92;72.09;101471.72;5059693;28;45406;-67
2022/10/02 03:00:43;;;;;;;;;1.50;1.50;;;;;17.90;72.11;101453.88;5066984;27;45429;-67
2022/10/02 03:03:08;;;;;;;;;1.00;1.00;;;;;17.93;72.67;101459.13;5064947;28;45423;-67
2022/10/02 03:05:38;;;;;;;;;1.00;1.00;;;;;17.92;72.48;101457.34;5079499;27;45331;-67
2022/10/02 03:08:28;;;;;;;;;2.50;1.50;;;;;17.93;73.20;101461.81;5074251;28;45265;-67
2022/10/02 03:11:08;;;;;;;;;1.25;1.25;;;;;17.89;73.04;101454.81;5074285;27;46361;-67
2022/10/02 03:13:52;;;;;;;;;1.00;1.00;;;;;17.94;73.18;101458.16;5071290;28;45601;-67
2022/10/02 03:16:37;;;;;;;;;4.75;3.00;;;;;17.88;73.40;101447.69;5092855;27;45259;-67
2022/10/02 03:19:14;;;;;;;;;2.00;1.50;;;;;17.90;73.14;101453.88;5064159;27;45363;-67
2022/10/02 03:22:17;;;;;;;;;1.75;1.75;;;;;17.94;73.57;101460.84;5076703;28;45347;-67
2022/10/02 03:24:58;;;;;;;;;2.75;2.50;;;;;17.93;73.58;101456.41;5065599;27;45585;-67
2022/10/02 03:27:34;;;;;;;;;1.50;1.50;;;;;17.89;73.47;101444.91;5073032;28;45437;-67
2022/10/02 03:30:07;;;;;;;;;1.50;1.50;;;;;17.91;73.47;101448.41;5065878;27;45545;-67
2022/10/02 03:32:35;;;;;;;;;2.50;2.00;;;;;17.95;73.56;101449.09;5059075;28;45652;-67
2022/10/02 03:35:03;;;;;;;;;1.00;1.00;;;;;17.94;73.86;101447.34;5074494;27;45302;-67
2022/10/02 03:37:30;;;;;;;;;0.75;0.75;;;;;17.95;73.85;101438.31;5068861;28;45390;-67
2022/10/02 03:40:04;;;;;;;;;1.50;1.50;;;;;17.94;73.76;101439.25;5070059;27;45722;-67
2022/10/02 03:42:33;;;;;;;;;0.75;0.75;;;;;17.91;73.95;101437.59;5058872;28;45495;-67
2022/10/02 03:44:58;;;;;;;;;1.00;1.00;;;;;17.93;73.65;101430.28;5076168;27;45547;-67
2022/10/02 03:47:24;;;;;;;;;1.25;1.25;;;;;17.93;73.86;101441.06;5079195;27;45440;-67
2022/10/02 03:49:49;;;;;;;;;0.00;0.00;;;;;17.97;73.79;101447.19;5065773;27;45361;-67
2022/10/02 03:52:17;;;;;;;;;0.50;0.50;;;;;17.94;74.28;101444.66;5078724;28;46058;-67
2022/10/02 03:54:43;;;;;;;;;0.50;0.50;;;;;17.99;74.35;101439.88;5065469;27;45266;-67
2022/10/02 03:57:14;;;;;;;;;0.75;0.50;;;;;17.99;74.63;101439.00;5064852;27;45528;-67
2022/10/02 03:59:47;;;;;;;;;0.50;0.50;;;;;17.94;74.43;101429.34;5065266;27;45490;-67
2022/10/02 04:02:25;;;;;;;;;1.25;0.50;;;;;17.95;74.24;101427.50;5077380;28;45367;-67
2022/10/02 04:05:01;;;;;;;;;1.50;1.50;;;;;18.00;74.12;101433.53;5064448;27;45556;-67
2022/10/02 04:07:32;;;;;;;;;2.00;1.00;;;;;17.98;73.93;101435.44;5079001;27;45369;-67
2022/10/02 04:09:58;;;;;;;;;0.50;0.50;;;;;18.05;74.10;101441.41;5064610;27;45492;-67
2022/10/02 04:12:31;;;;;;;;;0.25;0.25;;;;;18.02;74.23;101425.34;5078565;27;45949;-67
2022/10/02 04:15:08;;;;;;;;;0.75;0.75;;;;;18.06;74.87;101445.81;5073939;27;45440;-67
2022/10/02 04:17:43;;;;;;;;;0.00;0.00;;;;;18.00;74.84;101430.81;5075390;28;45461;-67
2022/10/02 04:20:49;;;;;;;;;1.00;1.00;;;;;18.04;74.45;101445.94;5062701;27;45509;-67
2022/10/02 04:23:21;;;;;;;;;2.50;0.50;;;;;18.06;74.61;101443.13;5077640;28;45516;-67
2022/10/02 04:25:51;;;;;;;;;0.00;0.00;;;;;18.06;75.15;101448.53;5072641;27;45554;-67
2022/10/02 04:28:26;;;;;;;;;1.00;0.00;;;;;18.05;74.97;101444.09;5074058;28;45354;-67
2022/10/02 04:30:52;;;;;;;;;0.50;0.00;;;;;18.05;75.12;101449.50;5075976;27;45628;-67
2022/10/02 04:33:21;;;;;;;;;0.50;0.00;;;;;18.05;75.05;101453.06;5077091;27;46076;-67
2022/10/02 04:35:58;;;;;;;;;0.00;0.00;;;;;18.05;75.02;101436.84;5067819;27;45350;-67
2022/10/02 04:38:58;;;;;;;;;0.00;0.00;;;;;18.06;74.98;101435.03;5064274;28;45412;-67
2022/10/02 04:41:42;;;;;;;;;0.00;0.00;;;;;18.06;75.55;101445.81;5079817;27;45602;-67
2022/10/02 04:44:52;;;;;;;;;0.00;0.00;;;;;18.06;75.17;101449.41;5067071;28;47116;-67
2022/10/02 04:47:29;;;;;;;;;1.00;0.00;;;;;18.03;75.21;101459.53;5072640;28;45444;-67
2022/10/02 04:50:38;;;;;;;;;0.00;0.00;;;;;18.07;75.55;101448.44;5073655;27;45379;-67
2022/10/02 04:53:31;;;;;;;;;0.00;0.00;;;;;18.09;75.52;101453.78;5046453;28;45538;-67
2022/10/02 04:56:12;;;;;;;;;0.00;0.00;;;;;18.09;75.63;101459.19;5073130;27;45657;-67
2022/10/02 04:59:02;;;;;;;;;0.00;0.00;;;;;18.09;75.20;101451.06;5064128;28;45658;-67
2022/10/02 05:02:12;;;;;;;;;0.00;0.00;;;;;18.11;75.17;101452.75;5075167;27;45398;-67
2022/10/02 05:04:53;;;;;;;;;1.00;0.00;;;;;18.10;75.00;101460.94;5060179;28;45946;-67
2022/10/02 05:07:37;;;;;;;;;0.50;0.50;;;;;18.08;75.37;101455.63;5071700;28;46644;-67
2022/10/02 05:10:37;;;;;;;;;0.00;0.00;;;;;18.12;75.11;101459.88;5065003;27;45510;-67
2022/10/02 05:13:08;;;;;;;;;0.00;0.00;;;;;18.10;74.73;101447.44;5081436;27;45418;-67
2022/10/02 05:16:07;;;;;;;;;0.75;0.00;;;;;18.04;75.19;101455.84;5077276;27;45339;-67
2022/10/02 05:18:43;;;;;;;;;0.00;0.00;;;;;18.06;74.84;101462.94;5067296;28;46340;-67
2022/10/02 05:21:16;;;;;;;;;0.00;0.00;;;;;18.07;75.36;101459.25;5072724;27;45415;-67
2022/10/02 05:24:07;;;;;;;;;0.00;0.00;;;;;18.07;75.08;101470.06;5067904;27;45295;-67
2022/10/02 05:26:56;;;;;;;;;0.00;0.00;;;;;18.06;75.01;101465.63;5076015;27;45449;-67
2022/10/02 05:29:48;;;;;;;;;0.00;0.00;;;;;18.01;74.83;101459.59;5062572;28;45487;-67
2022/10/02 05:32:43;;;;;;;;;0.00;0.00;;;;;18.07;74.90;101466.50;5082631;27;45310;-67
2022/10/02 05:35:35;;;;;;;;;0.00;0.00;;;;;18.03;74.38;101457.69;5065049;27;45588;-67
2022/10/02 05:38:22;;;;;;;;;0.00;0.00;;;;;18.07;74.46;101466.50;5081217;27;45321;-67
2022/10/02 05:41:02;;;;;;;;;0.00;0.00;;;;;18.05;74.38;101469.28;5071091;27;46211;-67
2022/10/02 05:43:58;;;;;;;;;0.00;0.00;;;;;18.06;74.48;101476.44;5075803;28;45409;-67
2022/10/02 05:46:27;;;;;;;;;0.00;0.00;;;;;18.01;74.43;101464.09;5073314;27;45542;-67
2022/10/02 05:48:59;;;;;;;;;0.00;0.00;;;;;18.03;74.72;101468.50;5070660;28;45276;-67
2022/10/02 05:51:35;;;;;;;;;0.00;0.00;;;;;18.03;74.81;101468.50;5078224;27;45529;-67
2022/10/02 05:54:39;;;;;;;;;0.00;0.00;;;;;18.04;74.21;101486.47;5066521;28;45334;-67
2022/10/02 05:58:03;;;;;;;;;0.00;0.00;;;;;18.04;74.11;101489.16;5074351;28;45540;-67
2022/10/02 06:00:33;;;;;;;;;0.00;0.00;;;;;18.00;74.49;101489.38;5011337;28;45517;-67
2022/10/02 06:03:24;;;;;;;;;0.00;0.00;;;;;18.01;74.17;101497.41;5068430;28;47419;-67
2022/10/02 06:06:16;;;;;;;;;0.00;0.00;;;;;18.01;74.56;101491.13;5069251;27;45524;-67
2022/10/02 06:08:49;;;;;;;;;0.00;0.00;;;;;18.01;74.73;101492.00;5073913;28;45326;-67
2022/10/02 06:11:23;;;;;;;;;0.00;0.00;;;;;17.96;74.49;101484.13;5071080;27;45485;-67
2022/10/02 06:13:55;;;;;;;;;0.00;0.00;;;;;17.96;74.64;101485.97;5074111;28;46406;-75
2022/10/02 06:16:44;;;;;;;;;0.00;0.00;;;;;17.99;74.69;101493.91;5071664;27;45672;-74
2022/10/02 06:19:16;;;;;;;;;0.00;0.00;;;;;17.92;74.93;101482.53;5064360;28;45300;-72
2022/10/02 06:22:18;;;;;;;;;0.00;0.00;;;;;17.97;74.46;101493.09;5080807;27;45342;-72
2022/10/02 06:24:49;;;;;;;;;0.00;0.00;;;;;17.97;74.68;101490.41;5060170;28;45458;-72
2022/10/02 06:27:35;;;;;;;;;0.00;0.00;;;;;17.96;74.81;101496.78;5075362;27;45363;-71
2022/10/02 06:30:11;;;;;;;;;0.00;0.00;;;;;17.84;74.63;101470.34;5068458;28;45562;-71
2022/10/02 06:33:15;;;;;;;;;0.00;0.00;;;;;17.95;74.83;101486.91;5077114;27;45560;-71
2022/10/02 06:35:46;;;;;;;;;0.00;0.00;;;;;17.89;74.83;101488.13;5076794;27;45427;-71
2022/10/02 06:38:21;;;;;;;;;0.50;0.00;;;;;17.84;75.03;101473.94;5067418;27;45795;-71
2022/10/02 06:41:01;;;;;;;;;0.75;0.00;;;;;17.95;75.11;101493.19;5074425;27;45378;-71
2022/10/02 06:44:03;;;;;;;;;0.00;0.00;;;;;17.89;74.89;101485.41;5069902;28;45557;-70
2022/10/02 06:46:37;;;;;;;;;0.00;0.00;;;;;17.96;75.31;101497.66;5065524;27;46146;-70
2022/10/02 06:49:28;;;;;;;;;0.00;0.00;;;;;17.97;75.14;101493.09;5059664;28;45328;-71
2022/10/02 06:52:22;;;;;;;;;0.00;0.00;;;;;17.98;75.89;101489.47;5077490;27;45518;-71
2022/10/02 06:54:59;;;;;;;;;0.00;0.00;;;;;17.99;75.83;101491.19;5067253;27;45695;-70
2022/10/02 06:57:33;;;;;;;;;0.00;0.00;;;;;18.00;75.85;101505.59;5081968;27;45490;-70
2022/10/02 07:00:15;;;;;;;;;0.00;0.00;;;;;17.94;75.89;101491.47;5061938;28;45707;-71
2022/10/02 07:03:02;;;;;;;;;0.00;0.00;;;;;18.02;75.97;101503.69;5068257;27;45703;-72
2022/10/02 07:05:36;;;;;;;;;0.00;0.00;;;;;18.01;76.50;101497.41;5069310;27;45729;-71
2022/10/02 07:08:37;;;;;;;;;0.00;0.00;;;;;18.03;75.77;101505.44;5072867;28;45473;-70
2022/10/02 07:11:08;;;;;;;;;0.00;0.00;;;;;18.03;76.36;101490.09;5039540;27;45313;-74
2022/10/02 07:13:47;;;;;;;;;0.00;0.00;;;;;18.04;75.79;101497.25;5055567;28;47082;-72
2022/10/02 07:16:26;;;;;;;;;0.00;0.00;;;;;17.82;75.58;101447.97;5066046;27;45451;-76
2022/10/02 07:19:23;;;;;;;;;0.00;0.00;;;;;18.06;76.00;101495.34;5059250;28;45932;-76
2022/10/02 07:21:49;;;;;;;;;0.00;0.00;;;;;18.09;76.20;101492.50;5063244;27;45315;-75
2022/10/02 07:24:34;;;;;;;;;0.00;0.00;;;;;17.98;76.37;101467.84;5059220;28;45396;-73
2022/10/02 07:27:38;;;;;;;;;0.00;0.00;;;;;18.09;76.20;101491.59;5070544;27;45566;-74
2022/10/02 07:30:13;;;;;;;;;0.00;0.00;;;;;17.99;76.32;101466.88;5066428;28;47059;-74
2022/10/02 07:32:42;;;;;;;;;0.00;0.00;;;;;18.15;75.36;101494.00;5072299;27;45444;-74
2022/10/02 07:35:50;;;;;;;;;0.00;0.00;;;;;18.19;75.65;101494.69;5063784;28;45462;-74
2022/10/02 07:38:43;;;;;;;;;0.25;0.00;;;;;18.17;75.69;101494.78;5068964;28;45515;-74
2022/10/02 07:41:27;;;;;;;;;0.00;0.00;;;;;18.21;75.59;101506.28;5076423;27;47686;-74
2022/10/02 07:44:08;;;;;;;;;0.00;0.00;;;;;18.20;75.41;101505.44;5074607;28;45369;-74
2022/10/02 07:46:57;;;;;;;;;0.00;0.00;;;;;18.22;75.87;101513.47;5063474;27;45422;-74
2022/10/02 07:49:55;;;;;;;;;1.25;0.00;;;;;18.21;75.55;101506.28;5058225;28;45330;-74
2022/10/02 07:52:36;;;;;;;;;0.75;0.00;;;;;18.14;75.19;101498.53;5078355;27;45325;-74
2022/10/02 07:55:19;;;;;;;;;0.00;0.00;;;;;17.98;74.97;101464.28;5066934;28;45551;-74
2022/10/02 07:57:58;;;;;;;;;0.50;0.00;;;;;18.20;75.30;101507.25;5072723;27;45519;-74
2022/10/02 08:00:27;;;;;;;;;1.00;0.50;;;;;18.11;75.12;101500.53;5073480;28;45307;-75
2022/10/02 08:03:05;;;;;;;;;1.00;0.00;;;;;18.13;74.75;101506.72;5069704;27;47275;-74
2022/10/02 08:05:40;;;;;;;;;0.00;0.00;;;;;18.14;74.84;101503.03;5077449;27;45379;-74
2022/10/02 08:08:15;;;;;;;;;0.75;0.75;;;;;18.22;75.37;101524.28;5070931;27;45448;-74
2022/10/02 08:10:46;;;;;;;;;0.00;0.00;;;;;18.22;75.29;101524.28;5066934;28;45363;-74
2022/10/02 08:13:30;;;;;;;;;1.75;0.75;;;;;18.27;74.75;101533.88;5084994;27;47196;-73
2022/10/02 08:15:55;;;;;;;;;0.75;0.00;;;;;18.22;74.64;101516.16;5063405;27;45596;-74
2022/10/02 08:18:36;;;;;;;;;0.50;0.50;;;;;18.37;74.88;101542.38;5060501;28;45427;-74
2022/10/02 08:21:11;;;;;;;;;1.75;1.00;;;;;18.39;74.77;101534.19;5062887;27;45311;-74
2022/10/02 08:23:59;;;;;;;;;0.00;0.00;;;;;18.21;74.85;101509.00;5081774;27;48178;-73
2022/10/02 08:26:33;;;;;;;;;1.75;0.75;;;;;18.35;74.37;101538.88;5063620;27;45549;-74
2022/10/02 08:29:13;;;;;;;;;1.00;1.00;;;;;18.25;74.19;101524.09;5068038;28;45594;-74
2022/10/02 08:31:39;;;;;;;;;1.00;0.75;;;;;18.21;74.06;101507.19;5060777;27;46051;-74
2022/10/02 08:34:15;;;;;;;;;2.00;1.00;;;;;18.44;74.47;101549.22;5062167;28;46520;-74
2022/10/02 08:36:54;;;;;;;;;1.50;0.50;;;;;18.46;74.08;101538.31;5065664;27;45608;-74
2022/10/02 08:39:38;;;;;;;;;1.25;1.00;;;;;18.44;74.64;101533.00;5077314;28;45359;-74
2022/10/02 08:42:10;;;;;;;;;4.75;0.75;;;;;18.49;74.14;101551.66;5072957;27;45684;-75
2022/10/02 08:44:45;;;;;;;;;3.50;1.75;;;;;18.45;74.31;101529.34;5075136;28;45893;-74
2022/10/02 08:47:28;;;;;;;;;2.75;1.50;;;;;18.56;74.18;101549.50;5072492;27;45553;-75
2022/10/02 08:50:29;;;;;;;;;3.75;1.25;;;;;18.54;74.36;101540.63;5069128;28;45403;-75
2022/10/02 08:53:13;;;;;;;;;0.75;0.50;;;;;18.61;74.56;101556.44;5075623;27;45464;-75
2022/10/02 08:55:49;;;;;;;;;2.50;2.00;;;;;18.63;74.35;101556.38;5071125;28;45346;-75
2022/10/02 08:58:40;;;;;;;;;6.25;2.00;;;;;18.57;74.06;101546.72;5081637;27;45493;-74
2022/10/02 09:01:24;;;;;;;;;3.00;1.00;;;;;18.68;74.21;101557.00;5073372;28;45512;-75
2022/10/02 09:04:37;;;;;;;;;5.00;2.00;;;;;18.66;74.10;101548.06;5062670;27;45489;-74
2022/10/02 09:07:21;;;;;;;;;2.00;1.00;;;;;18.70;74.49;101550.53;5071620;27;47176;-75
2022/10/02 09:10:25;;;;;;;;;3.00;1.00;;;;;18.71;74.00;101551.41;5060159;28;45731;-76
2022/10/02 09:13:02;;;;;;;;;5.25;1.00;;;;;18.73;73.72;101552.22;5066569;27;45453;-74
2022/10/02 09:15:45;;;;;;;;;2.00;1.00;;;;;18.74;74.12;101540.41;5064752;28;45570;-74
2022/10/02 09:18:53;;;;;;;;;0.75;0.75;;;;;18.77;74.15;101545.66;5056041;27;46386;-73
2022/10/02 09:21:37;;;;;;;;;3.50;0.75;;;;;18.66;73.82;101519.22;5029341;28;45686;-74
2022/10/02 09:24:34;;;;;;;;;1.25;0.75;;;;;18.80;74.09;101545.50;5060391;28;45755;-76
2022/10/02 09:27:23;;;;;;;;;2.00;1.00;;;;;18.83;73.51;101547.22;5041638;27;45470;-75
2022/10/02 09:30:19;;;;;;;;;0.50;0.50;;;;;18.85;73.75;101537.19;5063353;28;46160;-75
2022/10/02 09:33:20;;;;;;;;;3.00;1.25;;;;;18.87;74.23;101529.84;5075331;27;45354;-75
2022/10/02 09:36:28;;;;;;;;;0.75;0.75;;;;;18.87;74.14;101527.13;5071891;28;45535;-76
2022/10/02 09:39:27;;;;;;;;;2.00;1.00;;;;;18.93;73.74;101534.03;5061697;28;45446;-76
2022/10/02 09:42:10;;;;;;;;;1.75;0.00;;;;;18.95;73.67;101534.84;5058003;27;45567;-77
2022/10/02 09:44:57;;;;;;;;;2.00;1.00;;;;;18.97;73.37;101535.63;5066277;27;45753;-77
2022/10/02 09:47:48;;;;;;;;;1.25;0.25;;;;;19.00;73.59;101540.88;5070134;27;45472;-76
2022/10/02 09:50:53;;;;;;;;;0.25;0.00;;;;;18.97;73.74;101530.22;5077324;28;45619;-76
2022/10/02 09:53:47;;;;;;;;;0.00;0.00;;;;;19.05;73.68;101542.34;5054217;27;45638;-74
2022/10/02 09:56:49;;;;;;;;;0.25;0.25;;;;;19.04;73.41;101520.78;5070603;28;45473;-73
2022/10/02 09:59:33;;;;;;;;;1.50;0.25;;;;;19.12;73.65;101542.88;5060441;28;45406;-75
2022/10/02 10:02:23;;;;;;;;;1.00;1.00;;;;;19.14;73.26;101540.97;5069877;27;45466;-75
2022/10/02 10:04:55;;;;;;;;;1.50;1.00;;;;;19.16;73.86;101539.06;5064586;27;45910;-75
2022/10/02 10:07:51;;;;;;;;;0.00;0.00;;;;;19.20;73.86;101537.91;5075052;27;45781;-75
2022/10/02 10:10:52;;;;;;;;;1.75;0.00;;;;;19.19;73.22;101533.47;5068909;27;45560;-71
2022/10/02 10:13:37;;;;;;;;;1.25;1.25;;;;;19.27;73.58;101541.16;5065365;27;45485;-75
2022/10/02 10:16:18;;;;;;;;;0.75;0.75;;;;;19.30;73.37;101537.41;5068621;28;48184;-76
2022/10/02 10:19:14;;;;;;;;;1.00;1.00;;;;;19.33;73.69;101531.81;5059804;27;45561;-75
2022/10/02 10:22:06;;;;;;;;;3.75;1.00;;;;;19.39;73.81;101550.41;5060227;28;45813;-75
2022/10/02 10:25:15;;;;;;;;;1.00;1.00;;;;;19.37;73.66;101539.66;5069531;28;45715;-75
2022/10/02 10:28:16;;;;;;;;;1.00;1.00;;;;;19.47;73.08;101550.00;5073939;27;47494;-76
2022/10/02 10:30:48;;;;;;;;;2.00;1.00;;;;;19.48;72.81;101559.84;5066508;28;45770;-74
2022/10/02 10:33:26;;;;;;;;;1.75;1.00;;;;;19.47;72.65;101552.69;5075339;27;45496;-74
2022/10/02 10:39:29;;;;;;;;;0.75;0.75;;;;;19.48;72.39;101536.38;5001360;28;46435;-74
2022/10/02 10:42:28;;;;;;;;;0.75;0.75;;;;;19.51;72.66;101536.19;5060125;27;45484;-75
2022/10/02 10:45:04;;;;;;;;;0.00;0.00;;;;;19.50;72.05;101526.31;5074606;28;45719;-74
2022/10/02 10:48:05;;;;;;;;;1.00;1.00;;;;;19.56;72.42;101544.94;5065327;27;45805;-76
2022/10/02 10:50:37;;;;;;;;;0.00;0.00;;;;;19.55;71.90;101532.34;5044354;28;46923;-77
2022/10/02 10:53:27;;;;;;;;;1.00;1.00;;;;;19.67;71.59;101552.41;5065706;27;45809;-76
2022/10/02 10:56:01;;;;;;;;;0.75;0.75;;;;;19.69;71.40;101541.50;5063104;28;45773;-77
2022/10/02 10:58:27;;;;;;;;;2.00;1.00;;;;;19.69;71.17;101541.50;5073526;27;45664;-77
2022/10/02 11:01:21;;;;;;;;;0.00;0.00;;;;;19.70;70.87;101548.69;5055622;28;45810;-76
2022/10/02 11:04:25;;;;;;;;;0.25;0.25;;;;;19.71;70.69;101536.84;5060347;27;45637;-74
2022/10/02 11:07:12;;;;;;;;;0.50;0.50;;;;;19.74;70.54;101544.81;5068444;28;45666;-71
2022/10/02 11:09:48;;;;;;;;;1.50;0.00;;;;;19.75;70.40;101550.19;5068929;28;45603;-75
2022/10/02 11:12:32;;;;;;;;;0.00;0.00;;;;;19.77;70.50;101544.66;5057239;27;46259;-74
2022/10/02 11:15:12;;;;;;;;;0.75;0.75;;;;;19.77;69.96;101545.53;5061617;28;45580;-73
2022/10/02 11:17:38;;;;;;;;;0.00;0.00;;;;;19.79;71.01;101545.44;5059863;27;45514;-74
2022/10/02 11:20:24;;;;;;;;;0.25;0.25;;;;;19.80;70.71;101545.34;5068448;27;45377;-74
2022/10/02 11:23:16;;;;;;;;;1.00;1.00;;;;;19.84;70.15;101546.03;5065386;27;45663;-74
2022/10/02 11:25:51;;;;;;;;;1.00;1.00;;;;;19.87;69.89;101540.44;5051352;28;45596;-74
2022/10/02 11:28:41;;;;;;;;;0.75;0.50;;;;;19.87;69.63;101537.75;5069074;27;45378;-73
2022/10/02 11:31:28;;;;;;;;;1.00;1.00;;;;;19.89;69.43;101545.78;5059249;28;45361;-73
2022/10/02 11:34:11;;;;;;;;;1.00;1.00;;;;;19.88;69.57;101546.72;5057877;27;46457;-76
2022/10/02 11:37:06;;;;;;;;;0.00;0.00;;;;;19.88;69.15;101544.03;5053854;28;45642;-76
2022/10/02 11:40:13;;;;;;;;;1.75;1.00;;;;;19.86;69.85;101532.41;5073244;27;45841;-77
2022/10/02 11:42:47;;;;;;;;;0.00;0.00;;;;;19.85;69.58;101536.09;5071813;27;45555;-77
2022/10/02 11:45:32;;;;;;;;;0.00;0.00;;;;;19.93;69.36;101548.22;5063234;28;47623;-78
2022/10/02 11:48:17;;;;;;;;;0.75;0.75;;;;;19.96;69.22;101531.78;5060249;27;45641;-75
2022/10/02 11:51:00;;;;;;;;;1.00;1.00;;;;;19.97;69.77;101547.06;5055057;28;45521;-74
2022/10/02 11:53:44;;;;;;;;;0.00;0.00;;;;;19.86;69.44;101521.56;5066297;27;45797;-73
2022/10/02 11:56:31;;;;;;;;;1.50;0.75;;;;;20.02;69.37;101556.78;5065352;28;47969;-75
2022/10/02 11:59:17;;;;;;;;;0.00;0.00;;;;;20.03;69.57;101582.91;5067083;27;45460;-75
2022/10/02 12:02:16;;;;;;;;;1.00;1.00;;;;;19.99;70.92;101590.34;5060518;28;45432;-75
2022/10/02 12:05:30;;;;;;;;;1.00;1.00;;;;;19.87;71.80;101580.22;5061363;27;46046;-75
2022/10/02 12:08:17;;;;;;;;;0.00;0.00;;;;;19.76;72.13;101557.34;5052723;27;45606;-76
2022/10/02 12:10:58;;;;;;;;;0.50;0.00;;;;;19.89;72.46;101581.00;5056378;28;45473;-75
2022/10/02 12:13:36;;;;;;;;;0.75;0.75;;;;;19.79;73.36;101559.00;5063025;27;45801;-74
2022/10/02 12:16:15;;;;;;;;;1.75;1.75;;;;;19.86;73.27;101575.75;5069986;27;45567;-73
2022/10/02 12:18:55;;;;;;;;;1.00;1.00;;;;;19.89;74.07;101576.44;5064042;27;45457;-76
2022/10/02 12:28:03;;;;;;;;;1.25;1.00;;;;;19.80;74.07;101541.78;5067165;27;45588;-75
2022/10/02 12:30:38;;;;;;;;;1.00;1.00;;;;;19.89;74.74;101557.47;5066613;28;48373;-73
2022/10/02 12:33:24;;;;;;;;;0.50;0.00;;;;;19.72;74.25;101534.06;5068537;27;45499;-74
2022/10/02 12:35:58;;;;;;;;;1.25;1.25;;;;;19.90;74.65;101564.66;5063685;28;45513;-75
2022/10/02 12:38:36;;;;;;;;;0.00;0.00;;;;;19.82;74.45;101555.25;5058727;27;45448;-74
2022/10/02 12:41:19;;;;;;;;;0.00;0.00;;;;;19.74;74.53;101547.53;5061127;27;46363;-75
2022/10/02 12:44:11;;;;;;;;;0.00;0.00;;;;;19.88;74.60;101569.31;5064301;27;45557;-76